sensor_id;sensor_type;location;lat;lon;timestamp;P1;durP1;ratioP1;P2;durP2;ratioP2
76752;SDS011;65687;51.308;16.916;2023-07-29T00:01:22;3.40;;;3.00;;
76752;SDS011;65687;51.308;16.916;2023-07-29T00:06:23;3.40;;;2.70;;
76752;SDS011;65687;51.308;16.916;2023-07-29T00:11:25;3.80;;;3.00;;
76752;SDS011;65687;51.308;16.916;2023-07-29T00:16:26;3.30;;;2.90;;
76752;SDS011;65687;51.308;16.916;2023-07-29T00:21:28;4.10;;;3.10;;
76752;SDS011;65687;51.308;16.916;2023-07-29T00:26:30;3.30;;;3.00;;
76752;SDS011;65687;51.308;16.916;2023-07-29T00:31:31;3.80;;;2.90;;
76752;SDS011;65687;51.308;16.916;2023-07-29T00:36:33;3.60;;;3.10;;
76752;SDS011;65687;51.308;16.916;2023-07-29T00:41:34;4.40;;;3.60;;
76752;SDS011;65687;51.308;16.916;2023-07-29T00:46:36;3.70;;;3.10;;
76752;SDS011;65687;51.308;16.916;2023-07-29T00:51:39;3.90;;;3.30;;
76752;SDS011;65687;51.308;16.916;2023-07-29T00:56:41;4.40;;;3.10;;
76752;SDS011;65687;51.308;16.916;2023-07-29T01:01:42;3.50;;;2.90;;
76752;SDS011;65687;51.308;16.916;2023-07-29T01:06:54;5.10;;;3.30;;
76752;SDS011;65687;51.308;16.916;2023-07-29T01:17:40;5.10;;;3.50;;
76752;SDS011;65687;51.308;16.916;2023-07-29T01:22:47;4.80;;;2.90;;
76752;SDS011;65687;51.308;16.916;2023-07-29T01:27:49;3.80;;;3.10;;
76752;SDS011;65687;51.308;16.916;2023-07-29T01:38:05;4.60;;;3.20;;
76752;SDS011;65687;51.308;16.916;2023-07-29T01:43:11;4.60;;;3.00;;
76752;SDS011;65687;51.308;16.916;2023-07-29T01:48:13;4.00;;;2.80;;
76752;SDS011;65687;51.308;16.916;2023-07-29T01:53:14;3.60;;;3.10;;
76752;SDS011;65687;51.308;16.916;2023-07-29T01:58:16;3.70;;;2.90;;
76752;SDS011;65687;51.308;16.916;2023-07-29T02:03:17;4.10;;;3.10;;
76752;SDS011;65687;51.308;16.916;2023-07-29T02:08:19;3.60;;;2.80;;
76752;SDS011;65687;51.308;16.916;2023-07-29T02:13:20;3.60;;;3.30;;
76752;SDS011;65687;51.308;16.916;2023-07-29T02:18:22;5.40;;;2.80;;
76752;SDS011;65687;51.308;16.916;2023-07-29T02:23:23;5.80;;;3.80;;
76752;SDS011;65687;51.308;16.916;2023-07-29T02:28:25;4.30;;;3.00;;
76752;SDS011;65687;51.308;16.916;2023-07-29T02:33:27;3.50;;;3.20;;
76752;SDS011;65687;51.308;16.916;2023-07-29T02:38:28;4.40;;;3.00;;
76752;SDS011;65687;51.308;16.916;2023-07-29T02:43:30;3.30;;;2.90;;
76752;SDS011;65687;51.308;16.916;2023-07-29T02:48:31;4.00;;;3.40;;
76752;SDS011;65687;51.308;16.916;2023-07-29T02:53:33;5.80;;;3.50;;
76752;SDS011;65687;51.308;16.916;2023-07-29T02:58:34;3.90;;;3.20;;
76752;SDS011;65687;51.308;16.916;2023-07-29T03:03:37;3.90;;;3.60;;
76752;SDS011;65687;51.308;16.916;2023-07-29T03:08:39;3.90;;;3.20;;
76752;SDS011;65687;51.308;16.916;2023-07-29T03:13:40;4.30;;;3.30;;
76752;SDS011;65687;51.308;16.916;2023-07-29T03:18:43;4.30;;;3.30;;
76752;SDS011;65687;51.308;16.916;2023-07-29T03:23:45;3.20;;;2.70;;
76752;SDS011;65687;51.308;16.916;2023-07-29T03:28:46;4.10;;;3.20;;
76752;SDS011;65687;51.308;16.916;2023-07-29T03:33:48;6.00;;;3.60;;
76752;SDS011;65687;51.308;16.916;2023-07-29T03:38:49;5.10;;;3.20;;
76752;SDS011;65687;51.308;16.916;2023-07-29T03:43:51;3.80;;;3.40;;
76752;SDS011;65687;51.308;16.916;2023-07-29T03:48:52;4.20;;;3.30;;
76752;SDS011;65687;51.308;16.916;2023-07-29T03:53:54;5.10;;;3.70;;
76752;SDS011;65687;51.308;16.916;2023-07-29T03:59:01;4.70;;;3.70;;
76752;SDS011;65687;51.308;16.916;2023-07-29T04:04:07;5.40;;;4.40;;
76752;SDS011;65687;51.308;16.916;2023-07-29T04:09:08;5.80;;;4.50;;
76752;SDS011;65687;51.308;16.916;2023-07-29T04:14:10;5.70;;;4.80;;
76752;SDS011;65687;51.308;16.916;2023-07-29T04:19:11;6.30;;;4.80;;
76752;SDS011;65687;51.308;16.916;2023-07-29T04:24:13;7.50;;;4.90;;
76752;SDS011;65687;51.308;16.916;2023-07-29T04:29:14;6.90;;;4.60;;
76752;SDS011;65687;51.308;16.916;2023-07-29T04:34:19;5.60;;;3.80;;
76752;SDS011;65687;51.308;16.916;2023-07-29T04:39:21;4.90;;;4.30;;
76752;SDS011;65687;51.308;16.916;2023-07-29T04:44:22;6.20;;;4.50;;
76752;SDS011;65687;51.308;16.916;2023-07-29T04:49:24;5.50;;;4.10;;
76752;SDS011;65687;51.308;16.916;2023-07-29T04:54:25;6.80;;;4.30;;
76752;SDS011;65687;51.308;16.916;2023-07-29T04:59:27;4.80;;;4.30;;
76752;SDS011;65687;51.308;16.916;2023-07-29T05:04:28;6.70;;;4.50;;
76752;SDS011;65687;51.308;16.916;2023-07-29T05:09:30;6.60;;;4.30;;
76752;SDS011;65687;51.308;16.916;2023-07-29T05:14:31;5.20;;;4.40;;
76752;SDS011;65687;51.308;16.916;2023-07-29T05:19:32;6.00;;;4.80;;
76752;SDS011;65687;51.308;16.916;2023-07-29T05:24:34;4.00;;;3.40;;
76752;SDS011;65687;51.308;16.916;2023-07-29T05:29:35;4.60;;;3.80;;
76752;SDS011;65687;51.308;16.916;2023-07-29T05:34:37;5.30;;;3.80;;
76752;SDS011;65687;51.308;16.916;2023-07-29T05:39:38;4.30;;;3.50;;
76752;SDS011;65687;51.308;16.916;2023-07-29T05:44:40;4.10;;;3.50;;
76752;SDS011;65687;51.308;16.916;2023-07-29T05:49:41;4.80;;;4.20;;
76752;SDS011;65687;51.308;16.916;2023-07-29T05:54:43;4.30;;;3.60;;
76752;SDS011;65687;51.308;16.916;2023-07-29T06:04:46;4.70;;;2.70;;
76752;SDS011;65687;51.308;16.916;2023-07-29T06:09:48;3.70;;;3.20;;
76752;SDS011;65687;51.308;16.916;2023-07-29T06:14:49;4.50;;;3.00;;
76752;SDS011;65687;51.308;16.916;2023-07-29T06:19:51;5.00;;;3.10;;
76752;SDS011;65687;51.308;16.916;2023-07-29T06:24:52;3.10;;;2.70;;
76752;SDS011;65687;51.308;16.916;2023-07-29T06:29:54;3.20;;;2.70;;
76752;SDS011;65687;51.308;16.916;2023-07-29T06:34:55;3.60;;;2.70;;
76752;SDS011;65687;51.308;16.916;2023-07-29T06:39:57;3.20;;;2.70;;
76752;SDS011;65687;51.308;16.916;2023-07-29T06:44:58;4.10;;;2.90;;
76752;SDS011;65687;51.308;16.916;2023-07-29T06:50:00;4.60;;;2.90;;
76752;SDS011;65687;51.308;16.916;2023-07-29T06:55:02;3.10;;;2.70;;
76752;SDS011;65687;51.308;16.916;2023-07-29T07:05:05;3.40;;;2.40;;
76752;SDS011;65687;51.308;16.916;2023-07-29T07:10:07;3.70;;;2.50;;
76752;SDS011;65687;51.308;16.916;2023-07-29T07:20:10;3.60;;;2.40;;
76752;SDS011;65687;51.308;16.916;2023-07-29T07:25:12;3.00;;;2.40;;
76752;SDS011;65687;51.308;16.916;2023-07-29T07:30:14;2.80;;;2.50;;
76752;SDS011;65687;51.308;16.916;2023-07-29T07:35:15;3.20;;;2.30;;
76752;SDS011;65687;51.308;16.916;2023-07-29T07:45:19;3.00;;;2.40;;
76752;SDS011;65687;51.308;16.916;2023-07-29T07:50:20;2.80;;;2.10;;
76752;SDS011;65687;51.308;16.916;2023-07-29T07:55:22;2.80;;;2.50;;
76752;SDS011;65687;51.308;16.916;2023-07-29T08:00:24;2.80;;;2.30;;
76752;SDS011;65687;51.308;16.916;2023-07-29T08:05:25;2.70;;;2.20;;
76752;SDS011;65687;51.308;16.916;2023-07-29T08:10:26;4.10;;;2.40;;
76752;SDS011;65687;51.308;16.916;2023-07-29T08:20:29;3.10;;;2.30;;
76752;SDS011;65687;51.308;16.916;2023-07-29T08:30:32;4.00;;;2.20;;
76752;SDS011;65687;51.308;16.916;2023-07-29T08:40:36;3.00;;;1.90;;
76752;SDS011;65687;51.308;16.916;2023-07-29T08:45:42;2.90;;;1.80;;
76752;SDS011;65687;51.308;16.916;2023-07-29T08:50:45;2.80;;;1.90;;
76752;SDS011;65687;51.308;16.916;2023-07-29T08:55:47;2.30;;;1.70;;
76752;SDS011;65687;51.308;16.916;2023-07-29T09:00:51;2.80;;;2.10;;
76752;SDS011;65687;51.308;16.916;2023-07-29T09:05:53;2.60;;;1.80;;
76752;SDS011;65687;51.308;16.916;2023-07-29T09:10:58;13.10;;;2.80;;
76752;SDS011;65687;51.308;16.916;2023-07-29T09:16:00;2.40;;;2.10;;
76752;SDS011;65687;51.308;16.916;2023-07-29T09:21:01;2.00;;;1.60;;
76752;SDS011;65687;51.308;16.916;2023-07-29T09:26:03;1.90;;;1.70;;
76752;SDS011;65687;51.308;16.916;2023-07-29T09:31:05;3.00;;;2.00;;
76752;SDS011;65687;51.308;16.916;2023-07-29T09:36:10;7.00;;;2.70;;
76752;SDS011;65687;51.308;16.916;2023-07-29T09:41:12;2.80;;;1.80;;
76752;SDS011;65687;51.308;16.916;2023-07-29T09:46:15;2.80;;;1.80;;
76752;SDS011;65687;51.308;16.916;2023-07-29T09:51:16;3.20;;;2.00;;
76752;SDS011;65687;51.308;16.916;2023-07-29T09:56:18;2.20;;;1.70;;
76752;SDS011;65687;51.308;16.916;2023-07-29T10:01:27;2.50;;;1.70;;
76752;SDS011;65687;51.308;16.916;2023-07-29T10:06:29;3.00;;;1.90;;
76752;SDS011;65687;51.308;16.916;2023-07-29T10:11:31;2.50;;;2.00;;
76752;SDS011;65687;51.308;16.916;2023-07-29T10:16:39;2.40;;;2.00;;
76752;SDS011;65687;51.308;16.916;2023-07-29T10:21:42;2.80;;;2.00;;
76752;SDS011;65687;51.308;16.916;2023-07-29T10:26:46;3.20;;;1.90;;
76752;SDS011;65687;51.308;16.916;2023-07-29T10:31:53;2.70;;;2.40;;
76752;SDS011;65687;51.308;16.916;2023-07-29T10:36:55;4.00;;;2.10;;
76752;SDS011;65687;51.308;16.916;2023-07-29T10:42:01;2.20;;;1.80;;
76752;SDS011;65687;51.308;16.916;2023-07-29T10:47:12;21.40;;;8.20;;
76752;SDS011;65687;51.308;16.916;2023-07-29T10:52:14;3.80;;;2.30;;
76752;SDS011;65687;51.308;16.916;2023-07-29T10:57:30;6.80;;;2.70;;
76752;SDS011;65687;51.308;16.916;2023-07-29T11:02:33;3.10;;;2.40;;
76752;SDS011;65687;51.308;16.916;2023-07-29T11:07:46;3.30;;;2.50;;
76752;SDS011;65687;51.308;16.916;2023-07-29T11:12:49;2.80;;;2.40;;
76752;SDS011;65687;51.308;16.916;2023-07-29T11:22:54;2.80;;;2.50;;
76752;SDS011;65687;51.308;16.916;2023-07-29T11:27:58;3.90;;;2.40;;
76752;SDS011;65687;51.308;16.916;2023-07-29T11:33:00;9.30;;;2.50;;
76752;SDS011;65687;51.308;16.916;2023-07-29T11:38:02;2.40;;;2.20;;
76752;SDS011;65687;51.308;16.916;2023-07-29T11:43:03;2.40;;;2.10;;
76752;SDS011;65687;51.308;16.916;2023-07-29T11:48:06;3.40;;;2.60;;
76752;SDS011;65687;51.308;16.916;2023-07-29T11:53:08;2.10;;;1.70;;
76752;SDS011;65687;51.308;16.916;2023-07-29T11:58:09;2.90;;;2.10;;
76752;SDS011;65687;51.308;16.916;2023-07-29T12:03:11;2.60;;;2.00;;
76752;SDS011;65687;51.308;16.916;2023-07-29T12:08:13;3.80;;;2.00;;
76752;SDS011;65687;51.308;16.916;2023-07-29T12:13:15;2.70;;;2.00;;
76752;SDS011;65687;51.308;16.916;2023-07-29T12:18:17;3.20;;;1.90;;
76752;SDS011;65687;51.308;16.916;2023-07-29T12:23:18;2.90;;;1.90;;
76752;SDS011;65687;51.308;16.916;2023-07-29T12:28:26;2.40;;;1.90;;
76752;SDS011;65687;51.308;16.916;2023-07-29T12:38:37;2.10;;;1.60;;
76752;SDS011;65687;51.308;16.916;2023-07-29T12:43:38;3.10;;;1.80;;
76752;SDS011;65687;51.308;16.916;2023-07-29T12:48:40;2.60;;;1.70;;
76752;SDS011;65687;51.308;16.916;2023-07-29T12:53:42;2.90;;;1.60;;
76752;SDS011;65687;51.308;16.916;2023-07-29T12:58:44;2.60;;;1.90;;
76752;SDS011;65687;51.308;16.916;2023-07-29T13:03:45;2.60;;;1.70;;
76752;SDS011;65687;51.308;16.916;2023-07-29T13:08:47;2.00;;;1.40;;
76752;SDS011;65687;51.308;16.916;2023-07-29T13:13:49;2.40;;;1.60;;
76752;SDS011;65687;51.308;16.916;2023-07-29T13:18:51;2.00;;;1.60;;
76752;SDS011;65687;51.308;16.916;2023-07-29T13:23:52;2.30;;;1.60;;
76752;SDS011;65687;51.308;16.916;2023-07-29T13:28:54;2.50;;;1.90;;
76752;SDS011;65687;51.308;16.916;2023-07-29T13:33:56;3.30;;;1.80;;
76752;SDS011;65687;51.308;16.916;2023-07-29T13:38:58;2.60;;;1.90;;
76752;SDS011;65687;51.308;16.916;2023-07-29T13:43:59;2.20;;;2.00;;
76752;SDS011;65687;51.308;16.916;2023-07-29T13:49:01;2.50;;;2.20;;
76752;SDS011;65687;51.308;16.916;2023-07-29T13:54:04;4.40;;;1.70;;
76752;SDS011;65687;51.308;16.916;2023-07-29T13:59:05;2.10;;;1.80;;
76752;SDS011;65687;51.308;16.916;2023-07-29T14:04:07;2.30;;;1.70;;
76752;SDS011;65687;51.308;16.916;2023-07-29T14:09:08;2.70;;;1.90;;
76752;SDS011;65687;51.308;16.916;2023-07-29T14:14:10;2.30;;;1.80;;
76752;SDS011;65687;51.308;16.916;2023-07-29T14:19:12;2.60;;;1.80;;
76752;SDS011;65687;51.308;16.916;2023-07-29T14:24:13;2.20;;;1.70;;
76752;SDS011;65687;51.308;16.916;2023-07-29T14:29:16;2.90;;;1.80;;
76752;SDS011;65687;51.308;16.916;2023-07-29T14:34:17;2.30;;;1.80;;
76752;SDS011;65687;51.308;16.916;2023-07-29T14:39:18;2.40;;;1.80;;
76752;SDS011;65687;51.308;16.916;2023-07-29T14:44:20;2.30;;;1.90;;
76752;SDS011;65687;51.308;16.916;2023-07-29T14:49:21;2.20;;;1.60;;
76752;SDS011;65687;51.308;16.916;2023-07-29T14:54:23;2.60;;;1.80;;
76752;SDS011;65687;51.308;16.916;2023-07-29T14:59:25;2.30;;;1.70;;
76752;SDS011;65687;51.308;16.916;2023-07-29T15:04:26;1.90;;;1.40;;
76752;SDS011;65687;51.308;16.916;2023-07-29T15:09:28;5.20;;;1.60;;
76752;SDS011;65687;51.308;16.916;2023-07-29T15:14:29;3.80;;;1.60;;
76752;SDS011;65687;51.308;16.916;2023-07-29T15:19:31;2.40;;;1.50;;
76752;SDS011;65687;51.308;16.916;2023-07-29T15:24:32;4.00;;;1.60;;
76752;SDS011;65687;51.308;16.916;2023-07-29T15:29:34;3.30;;;1.50;;
76752;SDS011;65687;51.308;16.916;2023-07-29T15:34:36;2.40;;;1.60;;
76752;SDS011;65687;51.308;16.916;2023-07-29T15:44:39;2.50;;;1.50;;
76752;SDS011;65687;51.308;16.916;2023-07-29T15:49:41;2.30;;;1.70;;
76752;SDS011;65687;51.308;16.916;2023-07-29T15:54:42;4.10;;;2.00;;
76752;SDS011;65687;51.308;16.916;2023-07-29T15:59:44;3.40;;;1.90;;
76752;SDS011;65687;51.308;16.916;2023-07-29T16:09:47;3.30;;;2.00;;
76752;SDS011;65687;51.308;16.916;2023-07-29T16:24:56;3.00;;;2.00;;
76752;SDS011;65687;51.308;16.916;2023-07-29T16:29:58;2.50;;;2.00;;
76752;SDS011;65687;51.308;16.916;2023-07-29T16:35:03;3.40;;;2.00;;
76752;SDS011;65687;51.308;16.916;2023-07-29T16:40:05;3.00;;;2.20;;
76752;SDS011;65687;51.308;16.916;2023-07-29T16:45:08;3.00;;;2.00;;
76752;SDS011;65687;51.308;16.916;2023-07-29T16:50:10;3.60;;;2.60;;
76752;SDS011;65687;51.308;16.916;2023-07-29T17:00:13;5.80;;;3.60;;
76752;SDS011;65687;51.308;16.916;2023-07-29T17:05:15;3.70;;;2.80;;
76752;SDS011;65687;51.308;16.916;2023-07-29T17:15:18;2.70;;;2.10;;
76752;SDS011;65687;51.308;16.916;2023-07-29T17:25:21;3.10;;;2.30;;
76752;SDS011;65687;51.308;16.916;2023-07-29T17:30:24;3.70;;;2.60;;
76752;SDS011;65687;51.308;16.916;2023-07-29T17:35:29;3.10;;;2.30;;
76752;SDS011;65687;51.308;16.916;2023-07-29T17:40:31;2.90;;;2.10;;
76752;SDS011;65687;51.308;16.916;2023-07-29T17:50:34;3.00;;;2.10;;
76752;SDS011;65687;51.308;16.916;2023-07-29T18:00:38;6.10;;;2.70;;
76752;SDS011;65687;51.308;16.916;2023-07-29T18:05:40;3.10;;;2.20;;
76752;SDS011;65687;51.308;16.916;2023-07-29T18:10:42;2.60;;;2.30;;
76752;SDS011;65687;51.308;16.916;2023-07-29T18:15:44;2.80;;;2.20;;
76752;SDS011;65687;51.308;16.916;2023-07-29T18:20:48;4.10;;;1.90;;
76752;SDS011;65687;51.308;16.916;2023-07-29T18:25:50;3.20;;;2.00;;
76752;SDS011;65687;51.308;16.916;2023-07-29T18:30:54;3.10;;;2.00;;
76752;SDS011;65687;51.308;16.916;2023-07-29T18:35:56;3.20;;;2.30;;
76752;SDS011;65687;51.308;16.916;2023-07-29T18:40:58;2.70;;;2.10;;
76752;SDS011;65687;51.308;16.916;2023-07-29T18:45:59;2.60;;;2.00;;
76752;SDS011;65687;51.308;16.916;2023-07-29T18:51:01;3.80;;;1.80;;
76752;SDS011;65687;51.308;16.916;2023-07-29T18:56:02;2.10;;;1.50;;
76752;SDS011;65687;51.308;16.916;2023-07-29T19:01:04;2.30;;;1.70;;
76752;SDS011;65687;51.308;16.916;2023-07-29T19:06:05;2.40;;;1.70;;
76752;SDS011;65687;51.308;16.916;2023-07-29T19:16:08;3.70;;;1.70;;
76752;SDS011;65687;51.308;16.916;2023-07-29T19:21:10;3.90;;;2.00;;
76752;SDS011;65687;51.308;16.916;2023-07-29T19:26:12;3.90;;;1.90;;
76752;SDS011;65687;51.308;16.916;2023-07-29T19:31:17;2.20;;;1.60;;
76752;SDS011;65687;51.308;16.916;2023-07-29T19:36:18;2.20;;;1.60;;
76752;SDS011;65687;51.308;16.916;2023-07-29T19:41:20;3.60;;;1.70;;
76752;SDS011;65687;51.308;16.916;2023-07-29T19:46:21;3.00;;;1.60;;
76752;SDS011;65687;51.308;16.916;2023-07-29T19:56:27;2.50;;;1.70;;
76752;SDS011;65687;51.308;16.916;2023-07-29T20:01:28;2.20;;;1.60;;
76752;SDS011;65687;51.308;16.916;2023-07-29T20:06:30;3.40;;;1.70;;
76752;SDS011;65687;51.308;16.916;2023-07-29T20:11:32;3.40;;;1.80;;
76752;SDS011;65687;51.308;16.916;2023-07-29T20:16:34;2.50;;;1.70;;
76752;SDS011;65687;51.308;16.916;2023-07-29T20:26:37;2.30;;;1.40;;
76752;SDS011;65687;51.308;16.916;2023-07-29T20:31:38;2.30;;;1.50;;
76752;SDS011;65687;51.308;16.916;2023-07-29T20:36:40;3.10;;;1.60;;
76752;SDS011;65687;51.308;16.916;2023-07-29T20:41:42;3.50;;;1.90;;
76752;SDS011;65687;51.308;16.916;2023-07-29T20:46:44;2.40;;;1.80;;
76752;SDS011;65687;51.308;16.916;2023-07-29T20:51:46;2.60;;;1.80;;
76752;SDS011;65687;51.308;16.916;2023-07-29T20:56:47;2.40;;;1.60;;
76752;SDS011;65687;51.308;16.916;2023-07-29T21:01:49;3.70;;;1.50;;
76752;SDS011;65687;51.308;16.916;2023-07-29T21:11:52;3.70;;;1.90;;
76752;SDS011;65687;51.308;16.916;2023-07-29T21:16:55;2.60;;;1.70;;
76752;SDS011;65687;51.308;16.916;2023-07-29T21:21:57;3.10;;;1.90;;
76752;SDS011;65687;51.308;16.916;2023-07-29T21:26:58;3.90;;;1.70;;
76752;SDS011;65687;51.308;16.916;2023-07-29T21:32:00;3.00;;;1.70;;
76752;SDS011;65687;51.308;16.916;2023-07-29T21:37:01;2.80;;;1.80;;
76752;SDS011;65687;51.308;16.916;2023-07-29T21:42:03;3.40;;;1.90;;
76752;SDS011;65687;51.308;16.916;2023-07-29T21:47:05;3.40;;;1.60;;
76752;SDS011;65687;51.308;16.916;2023-07-29T21:52:07;3.10;;;1.70;;
76752;SDS011;65687;51.308;16.916;2023-07-29T21:57:08;2.90;;;1.60;;
76752;SDS011;65687;51.308;16.916;2023-07-29T22:02:11;3.80;;;1.60;;
76752;SDS011;65687;51.308;16.916;2023-07-29T22:07:12;3.40;;;1.80;;
76752;SDS011;65687;51.308;16.916;2023-07-29T22:12:14;2.10;;;1.60;;
76752;SDS011;65687;51.308;16.916;2023-07-29T22:17:15;2.90;;;1.80;;
76752;SDS011;65687;51.308;16.916;2023-07-29T22:22:17;2.90;;;1.80;;
76752;SDS011;65687;51.308;16.916;2023-07-29T22:27:18;2.60;;;1.80;;
76752;SDS011;65687;51.308;16.916;2023-07-29T22:32:20;3.40;;;1.70;;
76752;SDS011;65687;51.308;16.916;2023-07-29T22:37:22;5.00;;;2.40;;
76752;SDS011;65687;51.308;16.916;2023-07-29T22:42:23;2.90;;;1.80;;
76752;SDS011;65687;51.308;16.916;2023-07-29T22:47:25;2.80;;;2.00;;
76752;SDS011;65687;51.308;16.916;2023-07-29T22:52:27;3.40;;;2.20;;
76752;SDS011;65687;51.308;16.916;2023-07-29T22:57:28;3.60;;;1.70;;
76752;SDS011;65687;51.308;16.916;2023-07-29T23:02:30;3.80;;;1.90;;
76752;SDS011;65687;51.308;16.916;2023-07-29T23:07:31;3.40;;;1.80;;
76752;SDS011;65687;51.308;16.916;2023-07-29T23:12:33;3.50;;;2.10;;
76752;SDS011;65687;51.308;16.916;2023-07-29T23:17:35;3.90;;;2.10;;
76752;SDS011;65687;51.308;16.916;2023-07-29T23:22:37;3.70;;;2.10;;
76752;SDS011;65687;51.308;16.916;2023-07-29T23:27:38;4.30;;;1.90;;
76752;SDS011;65687;51.308;16.916;2023-07-29T23:32:40;2.60;;;1.60;;
76752;SDS011;65687;51.308;16.916;2023-07-29T23:42:43;4.70;;;1.90;;
76752;SDS011;65687;51.308;16.916;2023-07-29T23:47:45;4.60;;;2.40;;
76752;SDS011;65687;51.308;16.916;2023-07-29T23:52:46;3.50;;;1.90;;
76752;SDS011;65687;51.308;16.916;2023-07-29T23:57:48;4.10;;;2.00;;
